createdAt,value
2022-09-23T04:30:55.324Z,99.99
2022-09-23T04:31:55.308Z,99.99
2022-09-23T04:32:55.264Z,99.99
2022-09-23T04:33:55.325Z,99.99
2022-09-23T04:34:55.235Z,99.99
2022-09-23T04:35:55.224Z,99.99
2022-09-23T04:36:55.224Z,99.99
2022-09-23T04:37:55.194Z,99.99
2022-09-23T04:38:55.223Z,99.99
2022-09-23T04:39:55.184Z,99.99
2022-09-23T04:40:55.221Z,99.99
2022-09-23T04:41:55.151Z,99.99
2022-09-23T04:42:55.134Z,99.99
2022-09-23T04:43:55.132Z,99.99
2022-09-23T04:44:55.112Z,99.99
2022-09-23T04:46:02.185Z,99.99
2022-09-23T04:46:55.128Z,99.99
2022-09-23T04:47:55.069Z,99.99
2022-09-23T04:48:55.066Z,99.99
2022-09-23T04:49:59.596Z,99.99
2022-09-23T04:50:55.026Z,99.99
2022-09-23T04:51:55.016Z,99.99
2022-09-23T04:52:55.026Z,99.99
2022-09-23T04:53:55.006Z,99.99
2022-09-23T04:54:54.986Z,99.99
2022-09-23T04:55:54.955Z,99.99
2022-09-23T04:56:54.957Z,99.99
2022-09-23T04:57:54.936Z,99.99
2022-09-23T04:58:54.934Z,99.99
2022-09-23T04:59:54.904Z,99.99
2022-09-23T05:00:54.936Z,99.99
2022-09-23T05:01:54.940Z,97.94
2022-09-23T05:02:54.863Z,94.34
2022-09-23T05:03:54.864Z,92.40
2022-09-23T05:04:54.853Z,91.37
2022-09-23T05:05:54.823Z,91.99
2022-09-23T05:06:55.176Z,91.12
2022-09-23T05:07:54.801Z,89.89
2022-09-23T05:08:54.792Z,88.66
2022-09-23T05:09:54.792Z,88.56
2022-09-23T05:10:54.763Z,88.45
2022-09-23T05:11:54.752Z,87.67
2022-09-23T05:12:57.227Z,87.30
2022-09-23T05:13:54.733Z,89.40
2022-09-23T05:14:54.721Z,90.63
2022-09-23T05:15:54.709Z,90.12
2022-09-23T05:16:54.681Z,90.47
2022-09-23T05:17:54.674Z,91.60
2022-09-23T05:18:54.694Z,91.86
2022-09-23T05:19:54.649Z,91.55
2022-09-23T05:20:54.645Z,91.57
2022-09-23T05:21:54.611Z,89.75
2022-09-23T05:22:54.611Z,87.59
2022-09-23T05:23:54.590Z,86.52
2022-09-23T05:24:54.599Z,85.33
2022-09-23T05:25:54.561Z,85.74
2022-09-23T05:26:54.630Z,85.99
2022-09-23T05:27:54.609Z,87.16
2022-09-23T05:28:54.521Z,87.37
2022-09-23T05:29:54.519Z,87.51
2022-09-23T05:30:54.499Z,87.96
2022-09-23T05:31:54.543Z,88.10
2022-09-23T05:32:54.469Z,88.56
2022-09-23T05:33:54.457Z,89.62
2022-09-23T05:34:54.459Z,90.69
2022-09-23T05:35:54.428Z,91.36
2022-09-23T05:36:54.421Z,92.22
2022-09-23T05:37:54.398Z,93.50
2022-09-23T05:38:54.398Z,94.53
2022-09-23T05:39:54.388Z,95.09
2022-09-23T05:40:54.377Z,95.30
2022-09-23T05:41:54.348Z,95.45
2022-09-23T05:42:54.338Z,95.76
2022-09-23T05:43:54.326Z,96.42
2022-09-23T05:44:54.327Z,97.14
2022-09-23T05:45:54.308Z,97.76
2022-09-23T05:46:54.351Z,98.28
2022-09-23T05:47:54.269Z,98.58
2022-09-23T05:48:55.423Z,98.90
2022-09-23T05:50:00.193Z,99.00
2022-09-23T05:50:55.236Z,99.10
2022-09-23T05:51:54.217Z,99.00
2022-09-23T05:52:54.208Z,99.10
2022-09-23T05:53:54.186Z,99.31
2022-09-23T05:54:54.195Z,99.52
2022-09-23T05:55:54.238Z,99.72
2022-09-23T05:56:54.155Z,99.82
2022-09-23T05:57:54.143Z,99.99
2022-09-23T05:58:54.134Z,99.99
2022-09-23T05:59:54.204Z,99.99
2022-09-23T06:00:54.104Z,99.93
2022-09-23T06:01:56.440Z,99.72
2022-09-23T06:02:54.138Z,99.72
2022-09-23T06:03:54.102Z,99.82
2022-09-23T06:04:54.064Z,99.82
2022-09-23T06:05:54.032Z,99.93
2022-09-23T06:06:54.056Z,99.93
2022-09-23T06:07:54.003Z,99.99
2022-09-23T06:08:54.001Z,99.99
2022-09-23T06:09:54.032Z,99.99
2022-09-23T06:10:54.675Z,99.99
2022-09-23T06:11:53.960Z,99.99
2022-09-23T06:12:53.947Z,99.99
2022-09-23T06:13:53.976Z,99.99
2022-09-23T06:14:53.925Z,99.99
2022-09-23T06:15:53.979Z,99.99
2022-09-23T06:16:53.895Z,99.99
2022-09-23T06:17:53.872Z,99.99
2022-09-23T06:18:53.870Z,99.99
2022-09-23T06:19:53.891Z,99.99
2022-09-23T06:20:53.851Z,99.99
2022-09-23T06:21:53.841Z,99.99
2022-09-23T06:22:55.479Z,99.99
2022-09-23T06:24:03.812Z,99.99
2022-09-23T06:24:54.788Z,99.99
2022-09-23T06:25:53.800Z,99.99
2022-09-23T06:26:53.777Z,99.99
2022-09-23T06:27:53.748Z,99.99
2022-09-23T06:28:53.741Z,99.99
2022-09-23T06:29:53.723Z,99.99
2022-09-23T06:30:53.765Z,99.99
2022-09-23T06:31:53.732Z,99.99
2022-09-23T06:32:53.690Z,99.99
2022-09-23T06:34:02.638Z,99.99
2022-09-23T06:34:54.660Z,99.99
2022-09-23T06:35:59.252Z,99.99
2022-09-23T06:36:54.641Z,99.99
2022-09-23T06:37:53.619Z,99.99
2022-09-23T06:38:53.609Z,99.99
2022-09-23T06:39:53.588Z,99.99
2022-09-23T06:40:53.661Z,99.99
2022-09-23T06:41:53.558Z,99.99
2022-09-23T06:42:53.548Z,99.99
2022-09-23T06:43:53.538Z,99.99
2022-09-23T06:44:53.538Z,99.99
2022-09-23T06:45:53.538Z,99.99
2022-09-23T06:46:53.551Z,99.99
2022-09-23T06:47:53.486Z,99.99
2022-09-23T06:48:53.497Z,99.99
2022-09-23T06:49:53.455Z,99.96
2022-09-23T06:50:53.457Z,99.96
2022-09-23T06:51:53.426Z,99.96
2022-09-23T06:52:53.419Z,99.96
2022-09-23T06:53:53.405Z,99.81
2022-09-23T06:54:53.397Z,99.71
2022-09-23T06:55:53.406Z,99.60
2022-09-23T06:56:53.395Z,99.35
2022-09-23T06:57:53.356Z,99.25
2022-09-23T06:58:53.355Z,99.21
2022-09-23T06:59:53.325Z,98.90
2022-09-23T07:00:53.363Z,98.54
2022-09-23T07:01:53.432Z,98.24
2022-09-23T07:02:53.319Z,97.78
2022-09-23T07:03:53.274Z,97.47
2022-09-23T07:04:53.265Z,97.06
2022-09-23T07:05:53.255Z,95.98
2022-09-23T07:06:53.244Z,95.27
2022-09-23T07:07:53.214Z,94.76
2022-09-23T07:08:53.214Z,94.55
2022-09-23T07:09:53.225Z,94.30
2022-09-23T07:10:53.203Z,94.30
2022-09-23T07:11:53.175Z,94.46
2022-09-23T07:12:53.153Z,94.15
2022-09-23T07:13:53.143Z,93.64
2022-09-23T07:14:53.134Z,93.29
2022-09-23T07:15:53.158Z,92.98
2022-09-23T07:16:53.124Z,93.04
2022-09-23T07:17:53.092Z,93.15
2022-09-23T07:18:53.084Z,93.00
2022-09-23T07:19:53.088Z,92.28
2022-09-23T07:20:53.072Z,91.77
2022-09-23T07:21:53.053Z,91.16
2022-09-23T07:22:53.153Z,91.01
2022-09-23T07:23:53.014Z,91.11
2022-09-23T07:24:53.003Z,90.81
2022-09-23T07:25:52.985Z,90.97
2022-09-23T07:26:52.995Z,91.03
2022-09-23T07:27:52.962Z,89.80
2022-09-23T07:28:52.942Z,89.65
2022-09-23T07:29:52.931Z,89.97
2022-09-23T07:31:00.071Z,90.02
2022-09-23T07:31:58.660Z,89.51
2022-09-23T07:32:53.947Z,89.61
2022-09-23T07:33:52.881Z,88.08
2022-09-23T07:34:52.862Z,87.32
2022-09-23T07:35:52.851Z,85.69
2022-09-23T07:36:52.852Z,84.57
2022-09-23T07:37:52.824Z,84.77
2022-09-23T07:38:52.812Z,86.20
2022-09-23T07:39:52.798Z,86.20
2022-09-23T07:40:52.896Z,86.06
2022-09-23T07:41:52.812Z,85.96
2022-09-23T07:42:52.772Z,85.82
2022-09-23T07:43:52.741Z,84.80
2022-09-23T07:44:52.731Z,83.98
2022-09-23T07:45:52.851Z,83.94
2022-09-23T07:46:52.762Z,82.82
2022-09-23T07:47:52.692Z,82.21
2022-09-23T07:48:52.680Z,82.88
2022-09-23T07:49:52.669Z,83.18
2022-09-23T07:50:52.649Z,82.94
2022-09-23T07:51:52.650Z,81.41
2022-09-23T07:52:52.621Z,80.60
2022-09-23T07:53:52.609Z,79.03
2022-09-23T07:54:52.601Z,79.17
2022-09-23T07:55:52.589Z,79.44
2022-09-23T07:56:52.586Z,79.54
2022-09-23T07:57:52.560Z,80.46
2022-09-23T07:58:52.568Z,78.59
2022-09-23T07:59:52.618Z,78.59
2022-09-23T08:00:52.519Z,77.53
2022-09-23T08:01:52.731Z,76.72
2022-09-23T08:02:53.199Z,76.68
2022-09-23T08:03:52.501Z,75.67
2022-09-23T08:04:52.459Z,75.46
2022-09-23T08:05:52.459Z,75.94
2022-09-23T08:06:52.460Z,75.53
2022-09-23T08:07:52.439Z,75.02
2022-09-23T08:09:00.048Z,75.29
2022-09-23T08:09:53.400Z,75.40
2022-09-23T08:10:52.388Z,74.58
2022-09-23T08:11:52.388Z,74.55
2022-09-23T08:12:52.358Z,74.44
2022-09-23T08:13:52.348Z,73.53
2022-09-23T08:14:52.329Z,73.43
2022-09-23T08:15:55.507Z,73.87
2022-09-23T08:16:52.393Z,74.48
2022-09-23T08:17:52.297Z,74.85
2022-09-23T08:18:52.316Z,75.67
2022-09-23T08:19:52.271Z,74.04
2022-09-23T08:20:52.357Z,74.04
2022-09-23T08:21:52.277Z,74.14
2022-09-23T08:22:52.225Z,77.05
2022-09-23T08:23:52.217Z,74.51
2022-09-23T08:24:53.609Z,74.01
2022-09-23T08:25:52.195Z,73.50
2022-09-23T08:26:52.187Z,73.70
2022-09-23T08:27:52.167Z,73.87
2022-09-23T08:28:52.146Z,73.57
2022-09-23T08:29:52.136Z,73.77
2022-09-23T08:30:52.223Z,73.57
2022-09-23T08:31:52.127Z,73.06
2022-09-23T08:32:52.086Z,71.33
2022-09-23T08:33:52.087Z,71.84
2022-09-23T08:34:52.068Z,71.44
2022-09-23T08:35:52.222Z,71.73
2022-09-23T08:36:52.046Z,71.50
2022-09-23T08:37:52.057Z,71.40
2022-09-23T08:38:52.016Z,72.11
2022-09-23T08:39:52.005Z,71.60
2022-09-23T08:40:51.986Z,71.09
2022-09-23T08:41:56.103Z,71.40
2022-09-23T08:42:52.963Z,71.57
2022-09-23T08:43:51.946Z,71.16
2022-09-23T08:44:51.937Z,70.96
2022-09-23T08:45:51.988Z,70.76
2022-09-23T08:46:51.936Z,72.78
2022-09-23T08:47:51.898Z,70.96
2022-09-23T08:48:51.917Z,70.45
2022-09-23T08:49:51.874Z,71.40
2022-09-23T08:50:51.866Z,71.33
2022-09-23T08:51:51.856Z,70.52
2022-09-23T08:52:51.845Z,71.53
2022-09-23T08:53:51.825Z,71.13
2022-09-23T08:54:55.326Z,71.33
2022-09-23T08:55:51.796Z,71.44
2022-09-23T08:56:51.796Z,71.00
2022-09-23T08:58:14.071Z,71.20
2022-09-23T08:58:52.756Z,71.00
2022-09-23T08:59:51.746Z,71.50
2022-09-23T09:00:51.758Z,70.65
2022-09-23T09:01:51.781Z,70.79
2022-09-23T09:02:51.734Z,70.65
2022-09-23T09:03:51.685Z,70.65
2022-09-23T09:04:51.684Z,71.97
2022-09-23T09:05:54.387Z,71.67
2022-09-23T09:06:54.142Z,70.56
2022-09-23T09:07:51.633Z,70.76
2022-09-23T09:08:51.634Z,70.65
2022-09-23T09:09:51.608Z,70.65
2022-09-23T09:10:51.605Z,71.26
2022-09-23T09:11:51.575Z,71.47
2022-09-23T09:12:51.566Z,71.44
2022-09-23T09:13:51.552Z,71.64
2022-09-23T09:14:51.535Z,70.83
2022-09-23T09:15:51.577Z,70.72
2022-09-23T09:17:00.364Z,70.12
2022-09-23T09:17:52.494Z,70.59
2022-09-23T09:18:51.491Z,70.39
2022-09-23T09:19:51.464Z,70.69
2022-09-23T09:20:51.476Z,69.88
2022-09-23T09:21:51.443Z,69.68
2022-09-23T09:22:51.435Z,69.54
2022-09-23T09:23:51.433Z,69.44
2022-09-23T09:24:51.417Z,69.34
2022-09-23T09:25:51.385Z,69.85
2022-09-23T09:26:51.394Z,69.54
2022-09-23T09:27:51.363Z,68.84
2022-09-23T09:28:51.354Z,69.04
2022-09-23T09:29:51.334Z,70.25
2022-09-23T09:30:51.455Z,68.90
2022-09-23T09:31:51.316Z,68.70
2022-09-23T09:32:51.295Z,68.40
2022-09-23T09:33:51.282Z,68.40
2022-09-23T09:34:51.274Z,67.79
2022-09-23T09:35:51.255Z,67.76
2022-09-23T09:36:51.276Z,67.93
2022-09-23T09:37:53.451Z,67.22
2022-09-23T09:38:51.232Z,67.72
2022-09-23T09:39:51.195Z,66.61
2022-09-23T09:40:51.228Z,66.08
2022-09-23T09:41:51.224Z,66.65
2022-09-23T09:42:51.165Z,67.06
2022-09-23T09:43:51.153Z,65.61
2022-09-23T09:44:51.141Z,65.31
2022-09-23T09:45:55.227Z,65.41
2022-09-23T09:46:52.179Z,65.21
2022-09-23T09:47:51.093Z,65.61
2022-09-23T09:48:51.084Z,65.01
2022-09-23T09:49:51.079Z,64.87
2022-09-23T09:50:51.075Z,64.58
2022-09-23T09:51:51.054Z,64.75
2022-09-23T09:52:50.983Z,63.43
2022-09-23T09:53:50.961Z,64.50
2022-09-23T09:54:50.961Z,65.95
2022-09-23T09:55:50.939Z,65.61
2022-09-23T09:56:50.941Z,65.81
2022-09-23T09:57:50.909Z,64.61
2022-09-23T09:58:50.907Z,63.76
2022-09-23T09:59:50.879Z,63.67
2022-09-23T10:00:50.879Z,63.26
2022-09-23T10:01:50.929Z,63.39
2022-09-23T10:02:50.847Z,63.09
2022-09-23T10:03:53.046Z,62.88
2022-09-23T10:04:51.841Z,63.49
2022-09-23T10:05:50.796Z,63.67
2022-09-23T10:06:50.816Z,63.36
2022-09-23T10:07:50.785Z,62.65
2022-09-23T10:08:50.776Z,62.45
2022-09-23T10:09:50.748Z,62.43
2022-09-23T10:10:50.756Z,61.41
2022-09-23T10:11:50.736Z,61.61
2022-09-23T10:12:50.714Z,62.63
2022-09-23T10:13:50.695Z,61.52
2022-09-23T10:14:50.683Z,61.89
2022-09-23T10:15:50.664Z,61.08
2022-09-23T10:16:50.694Z,61.29
2022-09-23T10:17:50.643Z,59.88
2022-09-23T10:18:50.631Z,59.47
2022-09-23T10:19:50.612Z,59.67
2022-09-23T10:20:50.606Z,59.17
2022-09-23T10:21:50.603Z,60.61
2022-09-23T10:22:50.583Z,60.31
2022-09-23T10:23:50.560Z,60.08
2022-09-23T10:24:50.553Z,60.58
2022-09-23T10:25:50.533Z,59.77
2022-09-23T10:26:50.557Z,58.97
2022-09-23T10:27:50.503Z,58.69
2022-09-23T10:28:50.503Z,59.09
2022-09-23T10:29:50.480Z,59.42
2022-09-23T10:30:50.522Z,60.44
2022-09-23T10:31:50.474Z,61.44
2022-09-23T10:32:50.445Z,61.24
2022-09-23T10:33:50.428Z,60.94
2022-09-23T10:34:50.414Z,60.84
2022-09-23T10:35:50.405Z,61.07
2022-09-23T10:36:50.394Z,61.57
2022-09-23T10:37:50.388Z,61.57
2022-09-23T10:38:50.367Z,61.68
2022-09-23T10:39:50.346Z,61.88
2022-09-23T10:40:50.518Z,62.01
2022-09-23T10:41:50.326Z,62.62
2022-09-23T10:42:50.336Z,62.51
2022-09-23T10:43:50.299Z,62.48
2022-09-23T10:44:50.303Z,62.59
2022-09-23T10:45:50.294Z,62.96
2022-09-23T10:46:57.351Z,62.76
2022-09-23T10:47:50.263Z,62.22
2022-09-23T10:48:50.241Z,62.02
2022-09-23T10:49:50.223Z,61.11
2022-09-23T10:50:50.212Z,60.68
2022-09-23T10:51:50.203Z,61.11
2022-09-23T10:52:50.204Z,61.69
2022-09-23T10:53:50.174Z,60.78
2022-09-23T10:54:50.173Z,60.98
2022-09-23T10:55:50.145Z,60.68
2022-09-23T10:56:50.134Z,60.88
2022-09-23T10:57:50.137Z,60.81
2022-09-23T10:58:50.106Z,61.21
2022-09-23T10:59:50.098Z,61.01
2022-09-23T11:00:50.081Z,61.01
2022-09-23T11:01:50.101Z,61.01
2022-09-23T11:02:50.069Z,61.11
2022-09-23T11:03:50.048Z,61.41
2022-09-23T11:04:50.065Z,61.72
2022-09-23T11:05:50.022Z,61.99
2022-09-23T11:06:50.000Z,61.89
2022-09-23T11:07:50.009Z,61.08
2022-09-23T11:08:49.971Z,60.85
2022-09-23T11:09:49.972Z,61.36
2022-09-23T11:10:49.951Z,61.36
2022-09-23T11:11:49.941Z,60.05
2022-09-23T11:12:49.932Z,60.85
2022-09-23T11:13:54.090Z,60.58
2022-09-23T11:14:49.958Z,60.65
2022-09-23T11:15:49.903Z,60.15
2022-09-23T11:16:49.901Z,61.56
2022-09-23T11:17:49.883Z,60.15
2022-09-23T11:18:49.845Z,59.75
2022-09-23T11:19:49.835Z,60.15
2022-09-23T11:20:49.818Z,59.84
2022-09-23T11:21:49.818Z,59.95
2022-09-23T11:22:49.810Z,59.22
2022-09-23T11:23:49.787Z,60.32
2022-09-23T11:24:49.767Z,58.98
2022-09-23T11:25:49.766Z,59.08
2022-09-23T11:26:49.747Z,58.05
2022-09-23T11:27:49.749Z,57.82
2022-09-23T11:28:49.727Z,58.33
2022-09-23T11:29:49.708Z,57.52
2022-09-23T11:30:49.803Z,56.99
2022-09-23T11:31:49.679Z,56.76
2022-09-23T11:32:49.721Z,56.23
2022-09-23T11:33:49.660Z,55.93
2022-09-23T11:34:52.623Z,55.78
2022-09-23T11:35:50.639Z,54.85
2022-09-23T11:36:49.620Z,55.22
2022-09-23T11:37:49.621Z,53.50
2022-09-23T11:38:49.653Z,53.52
2022-09-23T11:39:49.584Z,53.62
2022-09-23T11:40:49.648Z,53.52
2022-09-23T11:41:49.552Z,52.59
2022-09-23T11:42:49.553Z,51.94
2022-09-23T11:43:49.522Z,51.57
2022-09-23T11:44:49.512Z,52.47
2022-09-23T11:45:49.547Z,52.55
2022-09-23T11:46:49.483Z,51.94
2022-09-23T11:47:49.492Z,51.44
2022-09-23T11:48:49.454Z,51.22
2022-09-23T11:49:49.453Z,51.57
2022-09-23T11:50:49.434Z,53.69
2022-09-23T11:51:49.440Z,53.00
2022-09-23T11:52:49.433Z,51.69
2022-09-23T11:53:49.407Z,52.89
2022-09-23T11:54:49.376Z,51.69
2022-09-23T11:55:57.179Z,53.34
2022-09-23T11:56:50.364Z,56.15
2022-09-23T11:57:49.739Z,53.95
2022-09-23T11:58:53.187Z,54.25
2022-09-23T11:59:50.321Z,55.08
2022-09-23T12:00:54.589Z,55.60
2022-09-23T12:01:50.490Z,55.63
2022-09-23T12:02:59.168Z,56.23
2022-09-23T12:03:50.383Z,56.03
2022-09-23T12:04:56.713Z,54.83
2022-09-23T12:05:50.303Z,54.30
2022-09-23T12:06:49.367Z,55.60
2022-09-23T12:07:49.228Z,55.60
2022-09-23T12:08:49.207Z,53.59
2022-09-23T12:09:58.113Z,54.33
2022-09-23T12:10:50.169Z,54.13
2022-09-23T12:11:49.169Z,54.60
2022-09-23T12:12:49.159Z,53.90
2022-09-23T12:13:49.141Z,52.89
2022-09-23T12:14:49.121Z,53.92
2022-09-23T12:15:49.111Z,53.45
2022-09-23T12:16:49.185Z,54.55
2022-09-23T12:17:49.101Z,54.38
2022-09-23T12:18:49.072Z,54.38
2022-09-23T12:19:49.060Z,54.98
2022-09-23T12:20:49.046Z,54.58
2022-09-23T12:21:51.286Z,55.88
2022-09-23T12:22:49.035Z,56.19
2022-09-23T12:23:49.012Z,55.28
2022-09-23T12:24:48.991Z,55.08
2022-09-23T12:25:48.990Z,54.68
2022-09-23T12:26:48.970Z,54.38
2022-09-23T12:27:48.992Z,54.88
2022-09-23T12:28:48.941Z,54.58
2022-09-23T12:29:48.932Z,54.45
2022-09-23T12:30:48.965Z,54.85
2022-09-23T12:31:48.903Z,55.26
2022-09-23T12:32:48.903Z,55.05
2022-09-23T12:33:48.883Z,56.66
2022-09-23T12:34:48.925Z,57.87
2022-09-23T12:35:48.852Z,57.67
2022-09-23T12:36:48.844Z,55.38
2022-09-23T12:37:48.844Z,55.08
2022-09-23T12:38:48.805Z,55.58
2022-09-23T12:39:48.794Z,55.08
2022-09-23T12:40:48.841Z,55.08
2022-09-23T12:41:48.780Z,54.68
2022-09-23T12:42:48.775Z,54.35
2022-09-23T12:43:48.756Z,53.45
2022-09-23T12:44:48.725Z,52.34
2022-09-23T12:45:49.194Z,51.74
2022-09-23T12:46:48.695Z,52.55
2022-09-23T12:47:48.696Z,53.14
2022-09-23T12:48:48.688Z,53.75
2022-09-23T12:49:48.678Z,53.75
2022-09-23T12:50:48.646Z,53.14
2022-09-23T12:51:48.636Z,52.94
2022-09-23T12:52:48.626Z,52.34
2022-09-23T12:53:48.618Z,53.34
2022-09-23T12:54:48.596Z,53.05
2022-09-23T12:55:48.587Z,53.25
2022-09-23T12:56:48.575Z,52.94
2022-09-23T12:57:48.556Z,53.34
2022-09-23T12:58:48.559Z,53.05
2022-09-23T12:59:48.535Z,52.94
2022-09-23T13:00:48.581Z,52.94
2022-09-23T13:01:48.733Z,52.64
2022-09-23T13:02:48.497Z,52.94
2022-09-23T13:03:48.488Z,53.65
2022-09-23T13:04:48.467Z,53.14
2022-09-23T13:05:48.466Z,53.05
2022-09-23T13:06:48.446Z,52.94
2022-09-23T13:07:48.428Z,53.45
2022-09-23T13:08:48.429Z,52.84
2022-09-23T13:09:48.398Z,53.14
2022-09-23T13:10:48.409Z,53.34
2022-09-23T13:11:48.368Z,53.55
2022-09-23T13:12:48.377Z,53.34
2022-09-23T13:13:48.399Z,53.85
2022-09-23T13:14:48.340Z,54.15
2022-09-23T13:15:48.328Z,53.32
2022-09-23T13:16:48.385Z,53.92
2022-09-23T13:17:48.298Z,53.72
2022-09-23T13:18:48.344Z,53.82
2022-09-23T13:19:48.270Z,53.32
2022-09-23T13:20:48.268Z,53.12
2022-09-23T13:21:48.239Z,54.22
2022-09-23T13:22:48.240Z,53.02
2022-09-23T13:23:48.239Z,52.42
2022-09-23T13:24:48.209Z,54.45
2022-09-23T13:25:48.211Z,52.94
2022-09-23T13:26:48.264Z,54.65
2022-09-23T13:27:48.170Z,53.45
2022-09-23T13:28:48.161Z,54.05
2022-09-23T13:29:48.151Z,55.05
2022-09-23T13:30:48.138Z,56.23
2022-09-23T13:31:48.147Z,54.63
2022-09-23T13:32:48.122Z,54.05
2022-09-23T13:33:48.094Z,53.95
2022-09-23T13:34:48.090Z,54.85
2022-09-23T13:35:48.061Z,54.25
2022-09-23T13:36:48.067Z,54.85
2022-09-23T13:37:48.031Z,54.85
2022-09-23T13:38:48.032Z,54.45
2022-09-23T13:39:48.021Z,53.65
2022-09-23T13:40:48.049Z,54.22
2022-09-23T13:41:47.985Z,53.62
2022-09-23T13:42:47.971Z,53.90
2022-09-23T13:43:47.960Z,54.88
2022-09-23T13:44:47.950Z,54.07
2022-09-23T13:45:47.944Z,55.18
2022-09-23T13:46:47.920Z,55.10
2022-09-23T13:47:47.900Z,54.70
2022-09-23T13:48:47.882Z,54.63
2022-09-23T13:49:47.911Z,56.23
2022-09-23T13:50:47.860Z,55.53
2022-09-23T13:51:47.852Z,55.33
2022-09-23T13:52:47.831Z,55.63
2022-09-23T13:53:47.831Z,55.43
2022-09-23T13:54:47.812Z,55.03
2022-09-23T13:55:52.257Z,54.33
2022-09-23T13:56:47.861Z,54.75
2022-09-23T13:57:47.773Z,55.86
2022-09-23T13:58:47.766Z,56.16
2022-09-23T13:59:47.743Z,55.66
2022-09-23T14:00:47.753Z,55.55
2022-09-23T14:01:47.763Z,56.26
2022-09-23T14:02:47.789Z,55.16
2022-09-23T14:03:47.709Z,54.88
2022-09-23T14:04:47.674Z,55.08
2022-09-23T14:05:47.664Z,56.09
2022-09-23T14:06:47.645Z,54.58
2022-09-23T14:07:47.645Z,54.78
2022-09-23T14:08:47.625Z,55.18
2022-09-23T14:09:47.624Z,55.48
2022-09-23T14:10:47.596Z,54.58
2022-09-23T14:11:47.594Z,54.78
2022-09-23T14:12:47.575Z,57.50
2022-09-23T14:13:47.578Z,55.68
2022-09-23T14:14:47.557Z,55.38
2022-09-23T14:15:47.547Z,55.88
2022-09-23T14:16:47.588Z,54.58
2022-09-23T14:17:47.507Z,54.40
2022-09-23T14:18:47.499Z,54.30
2022-09-23T14:19:47.507Z,54.60
2022-09-23T14:20:47.476Z,54.80
2022-09-23T14:21:47.468Z,55.41
2022-09-23T14:22:47.448Z,55.31
2022-09-23T14:23:47.438Z,55.51
2022-09-23T14:24:47.428Z,56.01
2022-09-23T14:25:47.437Z,56.01
2022-09-23T14:26:47.396Z,55.11
2022-09-23T14:27:47.389Z,55.41
2022-09-23T14:28:47.378Z,55.61
2022-09-23T14:29:47.379Z,55.81
2022-09-23T14:30:47.341Z,56.04
2022-09-23T14:31:47.451Z,56.34
2022-09-23T14:32:47.316Z,56.92
2022-09-23T14:33:47.319Z,56.82
2022-09-23T14:34:47.372Z,55.13
2022-09-23T14:35:47.283Z,55.63
2022-09-23T14:36:47.259Z,55.13
2022-09-23T14:37:47.258Z,55.94
2022-09-23T14:38:47.230Z,55.94
2022-09-23T14:39:47.253Z,55.54
2022-09-23T14:40:47.260Z,56.01
2022-09-23T14:41:47.200Z,55.41
2022-09-23T14:42:47.180Z,55.41
2022-09-23T14:43:47.252Z,55.51
2022-09-23T14:44:47.220Z,55.61
2022-09-23T14:45:47.195Z,55.71
2022-09-23T14:46:47.132Z,55.71
2022-09-23T14:47:47.131Z,54.71
2022-09-23T14:48:47.110Z,55.11
2022-09-23T14:49:47.122Z,55.11
2022-09-23T14:50:47.092Z,54.50
2022-09-23T14:51:47.071Z,55.03
2022-09-23T14:52:47.052Z,55.21
2022-09-23T14:53:47.040Z,55.51
2022-09-23T14:54:47.100Z,57.02
2022-09-23T14:55:47.014Z,55.61
2022-09-23T14:56:47.000Z,55.11
2022-09-23T14:57:46.994Z,55.08
2022-09-23T14:58:51.705Z,54.98
2022-09-23T14:59:47.972Z,55.79
2022-09-23T15:00:47.006Z,53.88
2022-09-23T15:01:46.933Z,54.40
2022-09-23T15:02:46.926Z,54.80
2022-09-23T15:03:46.934Z,55.31
2022-09-23T15:04:46.979Z,54.91
2022-09-23T15:05:46.887Z,55.11
2022-09-23T15:06:46.869Z,55.00
2022-09-23T15:07:46.856Z,55.11
2022-09-23T15:08:46.842Z,54.71
2022-09-23T15:09:46.852Z,55.11
2022-09-23T15:10:46.815Z,55.91
2022-09-23T15:11:46.804Z,55.61
2022-09-23T15:12:46.806Z,55.74
2022-09-23T15:13:46.777Z,55.94
2022-09-23T15:14:46.844Z,55.94
2022-09-23T15:15:46.755Z,56.04
2022-09-23T15:16:46.777Z,56.14
2022-09-23T15:17:46.784Z,56.74
2022-09-23T15:18:46.703Z,56.84
2022-09-23T15:19:46.723Z,56.34
2022-09-23T15:20:46.694Z,57.85
2022-09-23T15:21:46.674Z,60.06
2022-09-23T15:22:46.665Z,59.08
2022-09-23T15:23:46.650Z,57.17
2022-09-23T15:24:46.750Z,57.88
2022-09-23T15:25:46.643Z,58.58
2022-09-23T15:26:46.605Z,59.39
2022-09-23T15:27:46.596Z,58.58
2022-09-23T15:28:46.576Z,58.48
2022-09-23T15:29:46.566Z,58.58
2022-09-23T15:30:46.564Z,58.38
2022-09-23T15:31:46.583Z,58.38
2022-09-23T15:32:46.558Z,58.88
2022-09-23T15:33:46.517Z,58.68
2022-09-23T15:34:46.500Z,57.98
2022-09-23T15:35:46.515Z,57.50
2022-09-23T15:36:46.475Z,57.70
2022-09-23T15:37:46.466Z,58.11
2022-09-23T15:38:46.445Z,57.90
2022-09-23T15:39:46.450Z,58.01
2022-09-23T15:40:46.454Z,57.81
2022-09-23T15:41:46.446Z,57.60
2022-09-23T15:42:46.406Z,58.11
2022-09-23T15:43:46.377Z,57.70
2022-09-23T15:44:46.367Z,57.81
2022-09-23T15:45:46.427Z,58.34
2022-09-23T15:46:46.337Z,58.54
2022-09-23T15:47:46.338Z,58.54
2022-09-23T15:48:46.307Z,58.34
2022-09-23T15:49:46.311Z,58.23
2022-09-23T15:50:46.299Z,58.64
2022-09-23T15:51:46.287Z,58.34
2022-09-23T15:52:46.267Z,59.04
2022-09-23T15:53:46.258Z,59.75
2022-09-23T15:54:46.255Z,59.64
2022-09-23T15:55:46.239Z,58.47
2022-09-23T15:56:46.229Z,58.67
2022-09-23T15:57:46.223Z,58.97
2022-09-23T15:58:46.190Z,58.67
2022-09-23T15:59:46.177Z,58.97
2022-09-23T16:00:46.192Z,58.76
2022-09-23T16:01:46.213Z,58.67
2022-09-23T16:02:46.198Z,59.67
2022-09-23T16:03:46.120Z,59.67
2022-09-23T16:04:46.249Z,59.17
2022-09-23T16:05:46.129Z,59.57
2022-09-23T16:06:46.088Z,59.27
2022-09-23T16:07:46.131Z,60.98
2022-09-23T16:08:46.048Z,60.08
2022-09-23T16:09:46.048Z,59.27
2022-09-23T16:10:46.020Z,60.08
2022-09-23T16:11:46.018Z,61.99
2022-09-23T16:12:45.998Z,60.21
2022-09-23T16:13:45.989Z,60.81
2022-09-23T16:14:46.129Z,62.02
2022-09-23T16:15:45.958Z,60.91
2022-09-23T16:16:46.008Z,61.11
2022-09-23T16:17:45.942Z,60.61
2022-09-23T16:18:45.921Z,60.71
2022-09-23T16:19:45.914Z,60.81
2022-09-23T16:20:45.898Z,63.13
2022-09-23T16:21:45.887Z,61.72
2022-09-23T16:22:45.859Z,62.02
2022-09-23T16:23:45.901Z,62.02
2022-09-23T16:24:45.857Z,61.61
2022-09-23T16:25:45.827Z,62.45
2022-09-23T16:26:45.809Z,62.15
2022-09-23T16:27:45.810Z,62.96
2022-09-23T16:28:45.788Z,63.16
2022-09-23T16:29:45.779Z,62.45
2022-09-23T16:30:45.770Z,61.95
2022-09-23T16:31:45.961Z,63.76
2022-09-23T16:32:45.806Z,65.99
2022-09-23T16:33:45.719Z,64.98
2022-09-23T16:34:45.721Z,62.35
2022-09-23T16:35:45.699Z,64.27
2022-09-23T16:36:45.678Z,64.10
2022-09-23T16:37:45.670Z,63.90
2022-09-23T16:38:45.650Z,63.29
2022-09-23T16:39:45.667Z,63.90
2022-09-23T16:40:47.325Z,65.01
2022-09-23T16:41:45.618Z,63.39
2022-09-23T16:42:45.600Z,63.70
2022-09-23T16:43:45.591Z,64.70
2022-09-23T16:44:45.670Z,65.51
2022-09-23T16:45:45.793Z,65.51
2022-09-23T16:46:45.551Z,68.33
2022-09-23T16:47:52.608Z,66.55
2022-09-23T16:48:51.414Z,70.79
2022-09-23T16:49:46.518Z,68.17
2022-09-23T16:50:45.519Z,66.75
2022-09-23T16:51:45.477Z,66.55
2022-09-23T16:52:45.489Z,68.27
2022-09-23T16:53:45.460Z,73.22
2022-09-23T16:54:45.449Z,72.61
2022-09-23T16:55:45.442Z,70.02
2022-09-23T16:56:45.520Z,71.44
2022-09-23T16:57:45.428Z,70.62
2022-09-23T16:58:45.397Z,70.73
2022-09-23T16:59:45.388Z,70.22
2022-09-23T17:00:45.489Z,74.37
2022-09-23T17:01:45.456Z,73.96
2022-09-23T17:02:45.349Z,70.46
2022-09-23T17:03:45.327Z,70.36
2022-09-23T17:04:45.309Z,71.17
2022-09-23T17:05:46.788Z,69.65
2022-09-23T17:06:45.289Z,71.57
2022-09-23T17:07:45.267Z,72.78
2022-09-23T17:08:45.268Z,70.86
2022-09-23T17:09:45.264Z,74.10
2022-09-23T17:10:45.259Z,73.90
2022-09-23T17:11:45.219Z,72.11
2022-09-23T17:12:45.209Z,72.92
2022-09-23T17:13:45.198Z,74.63
2022-09-23T17:14:45.178Z,70.29
2022-09-23T17:15:45.179Z,74.54
2022-09-23T17:16:45.267Z,75.14
2022-09-23T17:17:45.154Z,73.93
2022-09-23T17:18:45.119Z,71.91
2022-09-23T17:19:45.129Z,70.29
2022-09-23T17:20:45.130Z,75.75
2022-09-23T17:21:45.130Z,77.26
2022-09-23T17:22:45.069Z,78.28